Time;durP1;ratioP1;P1;durP2;ratioP2;P2;SDS_P1;SDS_P2;PMS_P1;PMS_P2;Temp;Humidity;BMP_temperature;BMP_pressure;BME280_temperature;BME280_humidity;BME280_pressure;Samples;Min_cycle;Max_cycle;Signal;HPM_P1;HPM_P2
2022/01/27 01:35:12;;;;;;;;;;;23.50;42.60;;;;;;3824659;22;1970945;-84
2022/01/27 01:36:54;;;;;;;;;;;23.50;42.60;;;;;;3911600;22;20002;-84
2022/01/27 01:38:26;;;;;;;;;;;23.50;42.60;;;;;;3867761;22;19920;-84
2022/01/27 01:39:58;;;;;;;;;;;23.50;42.60;;;;;;3855147;23;20007;-84
2022/01/27 01:41:28;;;;;;;;;;;23.50;42.60;;;;;;3855807;23;19927;-84
2022/01/27 01:43:00;;;;;;;;;;;23.50;42.60;;;;;;3853686;23;19919;-84
2022/01/27 01:44:32;;;;;;;;;;;23.50;42.60;;;;;;3854691;23;19943;-83
2022/01/27 01:46:03;;;;;;;;;;;23.50;42.60;;;;;;3866867;22;19923;-84
2022/01/27 01:47:35;;;;;;;;;;;23.50;42.60;;;;;;3869368;23;19970;-83
2022/01/27 01:49:06;;;;;;;;;;;23.50;42.60;;;;;;3855036;23;19920;-84
2022/01/27 01:50:40;;;;;;;;;;;23.50;42.60;;;;;;3854972;23;19924;-84
2022/01/27 01:52:11;;;;;;;;;;;23.50;42.60;;;;;;3855540;23;19919;-84
2022/01/27 01:53:43;;;;;;;;;;;23.50;42.60;;;;;;3854236;23;20353;-85
2022/01/27 01:55:15;;;;;;;;;;;23.50;42.60;;;;;;3855281;23;20335;-85
2022/01/27 01:56:46;;;;;;;;;;;23.50;42.50;;;;;;3855085;23;19924;-84
2022/01/27 01:58:18;;;;;;;;;;;23.50;42.50;;;;;;3854731;23;20369;-84
2022/01/27 01:59:49;;;;;;;;;;;23.50;42.50;;;;;;3855249;23;19924;-84
2022/01/27 02:01:21;;;;;;;;;;;23.50;42.60;;;;;;3854365;23;20258;-84
2022/01/27 02:02:53;;;;;;;;;;;23.50;42.50;;;;;;3853536;23;19932;-84
2022/01/27 02:04:25;;;;;;;;;;;23.50;42.40;;;;;;3855449;23;19994;-84
2022/01/27 02:05:58;;;;;;;;;;;23.50;42.30;;;;;;3854833;23;19975;-85
2022/01/27 02:07:38;;;;;;;;;;;23.50;42.30;;;;;;3854597;23;19924;-83
2022/01/27 02:09:21;;;;;;;;;;;23.50;42.10;;;;;;3855000;23;19931;-84
2022/01/27 02:18:13;;;;;;;;;;;23.50;41.90;;;;;;3854803;23;20549;-85
2022/01/27 02:19:44;;;;;;;;;;;23.50;42.00;;;;;;3854751;23;19920;-84
2022/01/27 02:21:17;;;;;;;;;;;23.50;41.80;;;;;;3855043;23;19924;-84
2022/01/27 02:22:49;;;;;;;;;;;23.50;41.80;;;;;;3854316;23;19919;-82
2022/01/27 02:24:21;;;;;;;;;;;23.50;41.80;;;;;;3854833;23;19985;-86
2022/01/27 02:25:52;;;;;;;;;;;23.50;41.70;;;;;;3855167;23;20294;-85
2022/01/27 02:27:24;;;;;;;;;;;23.50;41.80;;;;;;3853724;23;19920;-85
2022/01/27 02:28:56;;;;;;;;;;;23.50;41.80;;;;;;3854365;23;19919;-84
2022/01/27 02:30:27;;;;;;;;;;;23.50;41.90;;;;;;3854456;23;19982;-86
2022/01/27 02:31:59;;;;;;;;;;;23.50;41.90;;;;;;3855039;23;19920;-85
2022/01/27 02:33:31;;;;;;;;;;;23.50;41.80;;;;;;3853883;23;19928;-86
2022/01/27 02:35:03;;;;;;;;;;;23.50;41.90;;;;;;3855066;23;20389;-85
2022/01/27 02:36:36;;;;;;;;;;;23.50;42.00;;;;;;3854436;23;19982;-85
2022/01/27 02:38:07;;;;;;;;;;;23.50;41.90;;;;;;3854633;23;19920;-85
2022/01/27 02:39:39;;;;;;;;;;;23.60;42.00;;;;;;3855057;23;19982;-85
2022/01/27 02:41:11;;;;;;;;;;;23.50;42.00;;;;;;3855149;23;19935;-86
2022/01/27 02:42:42;;;;;;;;;;;23.50;42.00;;;;;;3855139;23;19927;-85
2022/01/27 02:44:20;;;;;;;;;;;23.50;42.00;;;;;;3854693;23;19927;-86
2022/01/27 02:45:55;;;;;;;;;;;23.60;42.00;;;;;;3854016;23;20408;-86
2022/01/27 02:47:26;;;;;;;;;;;23.50;42.00;;;;;;3854306;23;19947;-85
2022/01/27 02:48:58;;;;;;;;;;;23.50;42.10;;;;;;3854622;23;19966;-86
2022/01/27 02:50:30;;;;;;;;;;;23.60;42.10;;;;;;3855336;23;19973;-86
2022/01/27 02:52:03;;;;;;;;;;;23.50;42.00;;;;;;3854413;23;19924;-86
2022/01/27 02:53:34;;;;;;;;;;;23.50;42.00;;;;;;3853975;23;20664;-85
2022/01/27 02:55:07;;;;;;;;;;;23.60;42.10;;;;;;3855148;23;20242;-86
2022/01/27 02:56:44;;;;;;;;;;;23.50;41.90;;;;;;3854960;23;19927;-86
2022/01/27 02:58:16;;;;;;;;;;;23.60;42.10;;;;;;3854410;23;19939;-84
2022/01/27 02:59:48;;;;;;;;;;;23.50;42.10;;;;;;3854877;23;19920;-86
2022/01/27 03:01:21;;;;;;;;;;;23.50;42.10;;;;;;3853768;23;20343;-85
2022/01/27 03:02:52;;;;;;;;;;;23.50;42.00;;;;;;3854618;23;19935;-85
2022/01/27 03:04:23;;;;;;;;;;;23.50;42.10;;;;;;3854198;23;19919;-86
2022/01/27 03:05:55;;;;;;;;;;;23.50;42.10;;;;;;3854919;23;19966;-85
2022/01/27 03:07:28;;;;;;;;;;;23.50;42.70;;;;;;3853967;23;19947;-85
2022/01/27 03:08:59;;;;;;;;;;;23.50;42.10;;;;;;3855436;23;19920;-85
2022/01/27 03:10:33;;;;;;;;;;;23.50;42.10;;;;;;3854667;23;20373;-85
2022/01/27 03:12:07;;;;;;;;;;;23.50;42.10;;;;;;3854395;23;20392;-86
2022/01/27 03:13:39;;;;;;;;;;;23.50;42.10;;;;;;3852905;23;20347;-85
2022/01/27 03:15:11;;;;;;;;;;;23.50;42.10;;;;;;3853694;23;20323;-84
2022/01/27 03:16:43;;;;;;;;;;;23.60;42.10;;;;;;3854607;23;19920;-85
2022/01/27 03:18:15;;;;;;;;;;;23.50;42.10;;;;;;3854088;23;20297;-84
2022/01/27 03:19:46;;;;;;;;;;;23.50;42.10;;;;;;3854660;23;19923;-85
2022/01/27 03:21:18;;;;;;;;;;;23.60;42.10;;;;;;3855152;23;19946;-86
2022/01/27 03:22:51;;;;;;;;;;;23.50;42.10;;;;;;3854014;23;19920;-86
2022/01/27 03:24:23;;;;;;;;;;;23.60;42.10;;;;;;3854905;23;20350;-85
2022/01/27 03:25:55;;;;;;;;;;;23.60;42.20;;;;;;3855446;23;19927;-85
2022/01/27 03:27:27;;;;;;;;;;;23.60;42.20;;;;;;3854393;23;19947;-85
2022/01/27 03:28:59;;;;;;;;;;;23.60;42.10;;;;;;3854801;23;19940;-85
2022/01/27 03:30:31;;;;;;;;;;;23.50;42.80;;;;;;3853659;23;19940;-85
2022/01/27 03:32:02;;;;;;;;;;;23.50;42.10;;;;;;3855652;23;19924;-86
2022/01/27 03:33:36;;;;;;;;;;;23.50;42.10;;;;;;3853740;23;19955;-86
2022/01/27 03:35:07;;;;;;;;;;;23.50;42.10;;;;;;3854771;23;19995;-85
2022/01/27 03:36:39;;;;;;;;;;;23.60;42.20;;;;;;3854956;23;19934;-84
2022/01/27 03:38:12;;;;;;;;;;;23.50;42.20;;;;;;3854470;23;19923;-85
2022/01/27 03:39:44;;;;;;;;;;;23.50;42.10;;;;;;3855348;23;20350;-85
2022/01/27 03:41:19;;;;;;;;;;;23.50;42.10;;;;;;3855221;23;19920;-86
2022/01/27 03:43:02;;;;;;;;;;;23.50;42.10;;;;;;3853447;23;19923;-86
2022/01/27 03:44:34;;;;;;;;;;;23.60;42.10;;;;;;3854605;23;19920;-85
2022/01/27 03:46:05;;;;;;;;;;;23.50;42.10;;;;;;3853954;23;19920;-85
2022/01/27 03:47:36;;;;;;;;;;;23.60;42.10;;;;;;3854405;23;19993;-86
2022/01/27 03:49:08;;;;;;;;;;;23.60;42.20;;;;;;3855140;23;20541;-85
2022/01/27 03:50:40;;;;;;;;;;;23.50;42.10;;;;;;3854934;23;19924;-86
2022/01/27 03:52:11;;;;;;;;;;;23.60;42.20;;;;;;3855048;23;19920;-86
2022/01/27 03:53:44;;;;;;;;;;;23.50;42.10;;;;;;3853773;23;20305;-85
2022/01/27 03:55:16;;;;;;;;;;;23.50;42.10;;;;;;3854683;23;19920;-84
2022/01/27 03:56:48;;;;;;;;;;;23.50;42.20;;;;;;3855223;23;19923;-86
2022/01/27 03:58:19;;;;;;;;;;;23.50;42.10;;;;;;3854079;23;19923;-85
2022/01/27 03:59:51;;;;;;;;;;;23.60;42.20;;;;;;3855004;23;19920;-86
2022/01/27 04:01:23;;;;;;;;;;;23.60;42.20;;;;;;3854174;23;20509;-85
2022/01/27 04:03:02;;;;;;;;;;;23.50;42.10;;;;;;3854254;23;19931;-84
2022/01/27 04:04:34;;;;;;;;;;;23.60;42.10;;;;;;3854847;23;19998;-86
2022/01/27 04:06:07;;;;;;;;;;;23.60;42.20;;;;;;3854510;23;19927;-86
2022/01/27 04:07:39;;;;;;;;;;;23.50;42.10;;;;;;3854273;22;19920;-86
2022/01/27 04:09:12;;;;;;;;;;;23.60;42.20;;;;;;3855039;23;19986;-85
2022/01/27 04:10:44;;;;;;;;;;;23.60;42.20;;;;;;3855129;23;20568;-86
2022/01/27 04:12:16;;;;;;;;;;;23.60;42.20;;;;;;3854813;23;19920;-86
2022/01/27 04:13:48;;;;;;;;;;;23.60;42.10;;;;;;3853744;23;20236;-86
2022/01/27 04:15:20;;;;;;;;;;;23.60;42.20;;;;;;3853925;23;20447;-85
2022/01/27 04:16:51;;;;;;;;;;;23.60;42.20;;;;;;3854723;23;20002;-83
2022/01/27 04:18:23;;;;;;;;;;;23.60;42.10;;;;;;3853868;23;20312;-86
2022/01/27 04:19:55;;;;;;;;;;;23.60;42.20;;;;;;3854691;23;19920;-86
2022/01/27 04:21:26;;;;;;;;;;;23.50;42.20;;;;;;3855597;23;19978;-86
2022/01/27 04:22:58;;;;;;;;;;;23.50;42.10;;;;;;3854481;23;19927;-86
2022/01/27 04:24:31;;;;;;;;;;;23.60;42.20;;;;;;3855667;23;19920;-87
2022/01/27 04:26:04;;;;;;;;;;;23.60;42.20;;;;;;3856512;23;19982;-86
2022/01/27 04:27:39;;;;;;;;;;;23.60;42.10;;;;;;3855207;23;19919;-86
2022/01/27 04:29:10;;;;;;;;;;;23.60;42.80;;;;;;3855807;23;19920;-85
2022/01/27 04:30:42;;;;;;;;;;;23.60;42.20;;;;;;3854261;23;19978;-84
2022/01/27 04:32:20;;;;;;;;;;;23.60;42.20;;;;;;3856163;23;19943;-86
2022/01/27 04:33:53;;;;;;;;;;;23.50;42.00;;;;;;3855144;23;19923;-86
2022/01/27 04:35:27;;;;;;;;;;;23.50;42.20;;;;;;3855949;23;20351;-85
2022/01/27 04:36:59;;;;;;;;;;;23.60;42.20;;;;;;3855626;23;19920;-83
2022/01/27 04:38:35;;;;;;;;;;;23.60;42.10;;;;;;3855562;23;19924;-86
2022/01/27 04:40:14;;;;;;;;;;;23.60;42.20;;;;;;3855849;23;19944;-85
2022/01/27 04:41:51;;;;;;;;;;;23.60;42.10;;;;;;3856124;23;19920;-86
2022/01/27 04:43:29;;;;;;;;;;;23.60;42.20;;;;;;3854146;22;19938;-84
2022/01/27 04:45:04;;;;;;;;;;;23.60;42.10;;;;;;3855726;23;19954;-85
2022/01/27 04:46:42;;;;;;;;;;;23.60;42.20;;;;;;3874126;22;19994;-85
2022/01/27 04:48:17;;;;;;;;;;;23.60;42.20;;;;;;3874242;22;19925;-86
2022/01/27 04:49:49;;;;;;;;;;;23.60;42.20;;;;;;3874386;22;19920;-85
2022/01/27 04:51:22;;;;;;;;;;;23.60;42.20;;;;;;3874862;22;20302;-86
2022/01/27 04:52:56;;;;;;;;;;;23.60;42.20;;;;;;3873223;22;19919;-85
2022/01/27 04:54:32;;;;;;;;;;;23.60;42.20;;;;;;3874459;22;19924;-85
2022/01/27 04:56:10;;;;;;;;;;;23.60;42.20;;;;;;3874156;22;19919;-85
2022/01/27 04:57:44;;;;;;;;;;;23.60;42.10;;;;;;3873880;22;19993;-85
2022/01/27 04:59:19;;;;;;;;;;;23.60;42.80;;;;;;3874917;22;19919;-83
2022/01/27 05:00:52;;;;;;;;;;;23.60;42.20;;;;;;3873271;22;19920;-86
2022/01/27 05:02:26;;;;;;;;;;;23.60;42.20;;;;;;3874079;22;20280;-84
2022/01/27 05:04:02;;;;;;;;;;;23.60;42.10;;;;;;3874184;22;20266;-86
2022/01/27 05:05:37;;;;;;;;;;;23.60;42.20;;;;;;3871781;22;19923;-86
2022/01/27 05:07:09;;;;;;;;;;;23.60;42.20;;;;;;3871132;22;19951;-84
2022/01/27 05:08:41;;;;;;;;;;;23.60;42.20;;;;;;3872453;22;19919;-85
2022/01/27 05:10:17;;;;;;;;;;;23.60;42.10;;;;;;3870697;22;20373;-85
2022/01/27 05:11:54;;;;;;;;;;;23.60;42.10;;;;;;3871955;22;19994;-84
2022/01/27 05:13:28;;;;;;;;;;;23.60;42.10;;;;;;3871573;22;19935;-86
2022/01/27 05:15:00;;;;;;;;;;;23.60;42.10;;;;;;3873530;22;20416;-85
2022/01/27 05:16:31;;;;;;;;;;;23.60;42.10;;;;;;3873413;22;19919;-85
2022/01/27 05:18:03;;;;;;;;;;;23.60;42.10;;;;;;3873738;22;19924;-85
2022/01/27 05:19:35;;;;;;;;;;;23.60;42.00;;;;;;3874308;22;19919;-86
2022/01/27 05:21:06;;;;;;;;;;;23.60;42.10;;;;;;3874115;22;19919;-85
2022/01/27 05:22:38;;;;;;;;;;;23.60;42.00;;;;;;3874117;22;19968;-85
2022/01/27 05:24:09;;;;;;;;;;;23.60;42.10;;;;;;3874478;22;19919;-86
2022/01/27 05:25:41;;;;;;;;;;;23.60;42.10;;;;;;3874518;22;19946;-84
2022/01/27 05:27:14;;;;;;;;;;;23.60;42.10;;;;;;3874667;22;19928;-86
2022/01/27 05:28:46;;;;;;;;;;;23.50;42.00;;;;;;3873381;22;19973;-85
2022/01/27 05:30:17;;;;;;;;;;;23.50;42.00;;;;;;3873672;22;20506;-85
2022/01/27 05:31:49;;;;;;;;;;;23.60;42.00;;;;;;3873968;22;19920;-85
2022/01/27 05:33:21;;;;;;;;;;;23.60;42.10;;;;;;3872687;22;19978;-86
2022/01/27 05:34:53;;;;;;;;;;;23.60;42.10;;;;;;3889665;22;19927;-85
2022/01/27 05:36:24;;;;;;;;;;;23.60;42.00;;;;;;3893082;22;19981;-85
2022/01/27 05:37:56;;;;;;;;;;;23.60;42.00;;;;;;3891944;22;19919;-84
2022/01/27 05:39:27;;;;;;;;;;;23.60;42.00;;;;;;3893178;22;19969;-85
2022/01/27 05:40:59;;;;;;;;;;;23.50;42.00;;;;;;3893670;22;19919;-85
2022/01/27 05:42:32;;;;;;;;;;;23.60;41.90;;;;;;3892970;22;19919;-85
2022/01/27 05:44:04;;;;;;;;;;;23.50;41.90;;;;;;3891500;22;20273;-83
2022/01/27 05:45:36;;;;;;;;;;;23.60;42.00;;;;;;3892132;22;19919;-86
2022/01/27 05:47:08;;;;;;;;;;;23.50;42.00;;;;;;3892929;22;19990;-85
2022/01/27 05:48:39;;;;;;;;;;;23.60;42.00;;;;;;3892869;22;19998;-85
2022/01/27 05:50:11;;;;;;;;;;;23.60;42.10;;;;;;3893339;22;20253;-85
2022/01/27 05:51:42;;;;;;;;;;;23.50;41.90;;;;;;3893071;22;19925;-84
2022/01/27 05:53:14;;;;;;;;;;;23.50;41.90;;;;;;3892303;22;19969;-86
2022/01/27 05:54:45;;;;;;;;;;;23.50;41.90;;;;;;3892960;22;19973;-86
2022/01/27 05:56:16;;;;;;;;;;;23.60;42.00;;;;;;3893431;22;20085;-86
2022/01/27 05:57:49;;;;;;;;;;;23.60;42.00;;;;;;3892861;22;19955;-85
2022/01/27 05:59:21;;;;;;;;;;;23.50;41.90;;;;;;3893168;22;19969;-83
2022/01/27 06:00:53;;;;;;;;;;;23.60;42.00;;;;;;3892336;22;19927;-86
2022/01/27 06:02:24;;;;;;;;;;;23.50;41.90;;;;;;3892262;22;19920;-86
2022/01/27 06:03:56;;;;;;;;;;;23.60;41.90;;;;;;3892552;22;19990;-85
2022/01/27 06:05:27;;;;;;;;;;;23.50;41.80;;;;;;3893078;22;19926;-85
2022/01/27 06:06:59;;;;;;;;;;;23.50;41.90;;;;;;3893010;22;19973;-84
2022/01/27 06:08:31;;;;;;;;;;;23.50;41.90;;;;;;3892227;22;19946;-86
2022/01/27 06:10:03;;;;;;;;;;;23.60;41.90;;;;;;3893276;22;19923;-87
2022/01/27 06:11:34;;;;;;;;;;;23.50;41.80;;;;;;3893004;22;19919;-86
2022/01/27 06:13:08;;;;;;;;;;;23.50;41.80;;;;;;3891689;22;20338;-85
2022/01/27 06:14:40;;;;;;;;;;;23.50;41.90;;;;;;3892860;22;19994;-86
2022/01/27 06:16:12;;;;;;;;;;;23.50;41.90;;;;;;3892056;22;19919;-86
2022/01/27 06:17:44;;;;;;;;;;;23.50;41.90;;;;;;3892092;22;19919;-86
2022/01/27 06:19:15;;;;;;;;;;;23.50;41.90;;;;;;3892900;22;19920;-86
2022/01/27 06:20:47;;;;;;;;;;;23.50;41.80;;;;;;3893178;22;19969;-86
2022/01/27 06:22:18;;;;;;;;;;;23.60;41.90;;;;;;3891930;22;20297;-85
2022/01/27 06:23:50;;;;;;;;;;;23.60;41.90;;;;;;3892661;22;19921;-86
2022/01/27 06:25:22;;;;;;;;;;;23.50;41.80;;;;;;3893016;22;19923;-85
2022/01/27 06:26:53;;;;;;;;;;;23.50;41.80;;;;;;3892829;22;19923;-86
2022/01/27 06:28:26;;;;;;;;;;;23.60;41.90;;;;;;3897763;22;19979;-85
2022/01/27 06:29:58;;;;;;;;;;;23.50;41.80;;;;;;3892967;22;19923;-86
2022/01/27 06:31:30;;;;;;;;;;;23.50;41.80;;;;;;3892520;22;19924;-86
2022/01/27 06:33:01;;;;;;;;;;;23.60;41.90;;;;;;3891537;22;19919;-85
2022/01/27 06:34:33;;;;;;;;;;;23.50;41.80;;;;;;3893008;22;19923;-85
2022/01/27 06:36:05;;;;;;;;;;;23.60;41.90;;;;;;3893012;22;20361;-84
2022/01/27 06:37:37;;;;;;;;;;;23.50;41.80;;;;;;3892822;22;19931;-85
2022/01/27 06:39:08;;;;;;;;;;;23.50;41.80;;;;;;3893409;22;19919;-85
2022/01/27 06:40:40;;;;;;;;;;;23.50;41.90;;;;;;3892519;22;19926;-85
2022/01/27 06:42:12;;;;;;;;;;;23.50;41.90;;;;;;3893060;22;19927;-85
2022/01/27 06:43:45;;;;;;;;;;;23.50;41.90;;;;;;3891536;22;20320;-85
2022/01/27 06:45:16;;;;;;;;;;;23.50;41.90;;;;;;3891817;22;19919;-86
2022/01/27 06:46:48;;;;;;;;;;;23.60;41.90;;;;;;3894343;22;19973;-84
2022/01/27 06:48:19;;;;;;;;;;;23.50;41.80;;;;;;3894738;22;19941;-86
2022/01/27 06:49:51;;;;;;;;;;;23.60;42.00;;;;;;3893686;22;19981;-86
2022/01/27 06:51:26;;;;;;;;;;;23.60;41.90;;;;;;3892586;22;19919;-86
2022/01/27 06:52:57;;;;;;;;;;;23.50;42.50;;;;;;3895451;22;20350;-88
2022/01/27 06:54:29;;;;;;;;;;;23.50;41.90;;;;;;3893022;22;19998;-87
2022/01/27 06:56:01;;;;;;;;;;;23.60;42.00;;;;;;3892848;22;19994;-86
2022/01/27 06:57:33;;;;;;;;;;;23.60;41.90;;;;;;3892242;22;19948;-86
2022/01/27 06:59:06;;;;;;;;;;;23.50;41.90;;;;;;3892753;22;19919;-86
2022/01/27 07:00:38;;;;;;;;;;;23.60;41.90;;;;;;3892027;22;19998;-87
2022/01/27 07:02:09;;;;;;;;;;;23.50;41.80;;;;;;3893175;22;19962;-87
2022/01/27 07:03:41;;;;;;;;;;;23.50;41.80;;;;;;3891247;22;19919;-86
2022/01/27 07:05:15;;;;;;;;;;;23.60;42.00;;;;;;3892909;22;19927;-85
2022/01/27 07:06:48;;;;;;;;;;;23.60;41.90;;;;;;3892392;22;19919;-87
2022/01/27 07:08:20;;;;;;;;;;;23.50;41.90;;;;;;3894900;22;19926;-88
2022/01/27 07:09:51;;;;;;;;;;;23.50;41.80;;;;;;3893077;22;19946;-87
2022/01/27 07:11:23;;;;;;;;;;;23.50;41.90;;;;;;3893078;22;19931;-87
2022/01/27 07:12:55;;;;;;;;;;;23.50;41.90;;;;;;3892001;22;19965;-88
2022/01/27 07:14:30;;;;;;;;;;;23.60;41.90;;;;;;3892268;22;19927;-88
2022/01/27 07:16:02;;;;;;;;;;;23.50;41.80;;;;;;3891791;22;19973;-87
2022/01/27 07:17:33;;;;;;;;;;;23.50;41.80;;;;;;3892114;22;19923;-86
2022/01/27 07:19:05;;;;;;;;;;;23.50;41.80;;;;;;3892545;22;19980;-88
2022/01/27 07:20:37;;;;;;;;;;;23.50;41.90;;;;;;3892844;22;20480;-87
2022/01/27 07:22:08;;;;;;;;;;;23.50;41.80;;;;;;3892162;22;19919;-88
2022/01/27 07:23:40;;;;;;;;;;;23.60;41.90;;;;;;3891661;22;19972;-87
2022/01/27 07:25:12;;;;;;;;;;;23.50;41.80;;;;;;3892352;22;19981;-88
2022/01/27 07:26:43;;;;;;;;;;;23.60;41.90;;;;;;3892420;22;20353;-88
2022/01/27 07:28:15;;;;;;;;;;;23.50;41.80;;;;;;3891451;22;20235;-86
2022/01/27 07:29:48;;;;;;;;;;;23.60;41.90;;;;;;3892513;22;19923;-87
2022/01/27 07:31:20;;;;;;;;;;;23.50;41.90;;;;;;3891924;22;19996;-88
2022/01/27 07:32:51;;;;;;;;;;;23.60;41.90;;;;;;3891237;22;19927;-87
2022/01/27 21:23:40;;;;;;;;;;;23.10;48.80;;;;;;3885179;22;20007;-86
2022/01/27 21:25:12;;;;;;;;;;;23.10;48.70;;;;;;3892550;22;20527;-85
2022/01/27 21:26:44;;;;;;;;;;;23.10;48.70;;;;;;3892470;22;19923;-85
2022/01/27 21:28:16;;;;;;;;;;;23.10;48.70;;;;;;3888193;22;19969;-85
2022/01/27 21:29:48;;;;;;;;;;;23.10;48.50;;;;;;3892465;22;20342;-86
2022/01/27 21:31:20;;;;;;;;;;;23.10;48.50;;;;;;3889351;22;19927;-89
2022/01/27 21:32:51;;;;;;;;;;;23.10;48.50;;;;;;3892319;22;19927;-91
2022/01/27 21:34:27;;;;;;;;;;;23.10;48.20;;;;;;3892709;22;19998;-87
2022/01/27 21:35:59;;;;;;;;;;;23.10;48.10;;;;;;3889273;22;20373;-83
2022/01/27 21:37:30;;;;;;;;;;;23.10;48.30;;;;;;3891636;22;19923;-85
2022/01/27 21:39:05;;;;;;;;;;;23.10;48.30;;;;;;3891995;22;19919;-84
2022/01/27 21:40:37;;;;;;;;;;;23.10;48.10;;;;;;3892182;22;19920;-85
2022/01/27 21:42:08;;;;;;;;;;;23.10;48.10;;;;;;3891045;22;19989;-86
2022/01/27 21:43:40;;;;;;;;;;;23.10;47.60;;;;;;3890451;22;20445;-87
2022/01/27 21:45:12;;;;;;;;;;;23.10;47.70;;;;;;3890233;22;19923;-85
2022/01/27 21:46:44;;;;;;;;;;;23.10;47.70;;;;;;3891159;22;19919;-84
2022/01/27 21:48:15;;;;;;;;;;;23.10;47.30;;;;;;3894083;22;19923;-83
2022/01/27 21:49:47;;;;;;;;;;;23.10;47.20;;;;;;3892826;22;19945;-85
2022/01/27 21:51:19;;;;;;;;;;;23.10;47.90;;;;;;3893404;22;19923;-85
2022/01/27 21:52:51;;;;;;;;;;;23.10;47.30;;;;;;3892606;22;19968;-84
2022/01/27 21:54:24;;;;;;;;;;;23.10;47.20;;;;;;3892584;22;19923;-85
2022/01/27 21:55:55;;;;;;;;;;;23.10;47.30;;;;;;3894456;22;20326;-85
2022/01/27 21:57:27;;;;;;;;;;;23.10;47.30;;;;;;3891890;22;20376;-85
2022/01/27 21:58:59;;;;;;;;;;;23.10;47.30;;;;;;3893342;22;20483;-84
2022/01/27 22:00:30;;;;;;;;;;;23.00;47.20;;;;;;3891635;22;20005;-85
2022/01/27 22:02:02;;;;;;;;;;;23.10;47.00;;;;;;3893963;22;20045;-85
2022/01/27 22:03:34;;;;;;;;;;;23.10;47.00;;;;;;3890389;22;19919;-86
2022/01/27 22:05:06;;;;;;;;;;;23.00;46.90;;;;;;3880951;22;19923;-86
2022/01/27 22:06:37;;;;;;;;;;;23.10;47.10;;;;;;3893066;22;19919;-87
2022/01/27 22:08:09;;;;;;;;;;;23.00;46.80;;;;;;3888398;22;20307;-86
2022/01/27 22:09:42;;;;;;;;;;;23.10;46.80;;;;;;3883431;22;20334;-86
2022/01/27 22:11:14;;;;;;;;;;;23.10;46.80;;;;;;3888555;22;19923;-86
2022/01/27 22:12:46;;;;;;;;;;;23.00;46.70;;;;;;3891427;22;19923;-86
2022/01/27 22:14:20;;;;;;;;;;;23.00;46.70;;;;;;3891460;22;19923;-87
2022/01/27 22:15:52;;;;;;;;;;;23.00;46.50;;;;;;3882491;22;20369;-86
2022/01/27 22:17:24;;;;;;;;;;;23.00;46.50;;;;;;3891163;22;19972;-86
2022/01/27 22:18:55;;;;;;;;;;;23.00;46.50;;;;;;3893548;22;19923;-86
2022/01/27 22:20:27;;;;;;;;;;;23.00;46.50;;;;;;3891755;22;20301;-85
2022/01/27 22:22:01;;;;;;;;;;;23.00;46.40;;;;;;3892912;22;19923;-85
2022/01/27 22:23:34;;;;;;;;;;;23.00;46.40;;;;;;3890779;22;19920;-86
2022/01/27 22:25:07;;;;;;;;;;;23.00;46.30;;;;;;3892613;22;19920;-86
2022/01/27 22:26:39;;;;;;;;;;;23.00;46.30;;;;;;3892838;22;19923;-86
2022/01/27 22:28:11;;;;;;;;;;;23.00;46.30;;;;;;3890663;22;19920;-87
2022/01/27 22:29:43;;;;;;;;;;;23.00;46.20;;;;;;3892318;22;19923;-87
2022/01/27 22:31:14;;;;;;;;;;;23.00;46.20;;;;;;3891155;22;19923;-86
2022/01/27 22:32:46;;;;;;;;;;;23.00;46.20;;;;;;3891650;22;19923;-86
2022/01/27 22:34:18;;;;;;;;;;;23.00;46.20;;;;;;3891556;22;19941;-86
2022/01/27 22:35:50;;;;;;;;;;;22.90;46.00;;;;;;3892398;22;19927;-86
2022/01/27 22:37:22;;;;;;;;;;;22.90;46.00;;;;;;3892224;22;19919;-86
2022/01/27 22:38:53;;;;;;;;;;;22.90;45.90;;;;;;3891749;22;19989;-86
2022/01/27 22:40:28;;;;;;;;;;;22.90;45.90;;;;;;3892407;22;19923;-85
2022/01/27 22:42:00;;;;;;;;;;;22.90;45.90;;;;;;3893443;22;19923;-86
2022/01/27 22:43:33;;;;;;;;;;;22.90;45.80;;;;;;3889599;22;20066;-85
2022/01/27 22:45:05;;;;;;;;;;;22.90;45.70;;;;;;3892782;22;20294;-85
2022/01/27 22:46:36;;;;;;;;;;;22.90;45.70;;;;;;3891062;22;19990;-86
2022/01/27 22:48:08;;;;;;;;;;;22.90;45.70;;;;;;3891539;22;19984;-85
2022/01/27 22:49:40;;;;;;;;;;;22.90;45.70;;;;;;3891223;22;19927;-86
2022/01/27 22:51:11;;;;;;;;;;;22.90;45.60;;;;;;3892069;22;20304;-84
2022/01/27 22:52:43;;;;;;;;;;;22.90;45.60;;;;;;3891111;22;19959;-85
2022/01/27 22:54:15;;;;;;;;;;;22.90;45.40;;;;;;3891630;22;19946;-86
2022/01/27 22:55:48;;;;;;;;;;;22.90;45.40;;;;;;3893132;22;19951;-86
2022/01/27 22:57:19;;;;;;;;;;;22.90;45.30;;;;;;3893104;22;19943;-85
2022/01/27 22:58:51;;;;;;;;;;;23.00;45.30;;;;;;3890085;22;19919;-85
2022/01/27 23:00:24;;;;;;;;;;;22.90;45.30;;;;;;3891374;22;19973;-84
2022/01/27 23:01:56;;;;;;;;;;;22.90;45.20;;;;;;3891466;22;20254;-85
2022/01/27 23:03:27;;;;;;;;;;;22.90;45.10;;;;;;3891651;22;19919;-85
2022/01/27 23:04:59;;;;;;;;;;;22.90;45.20;;;;;;3894165;22;19950;-86
2022/01/27 23:06:31;;;;;;;;;;;22.90;45.20;;;;;;3891615;22;20438;-86
2022/01/27 23:08:03;;;;;;;;;;;22.90;45.20;;;;;;3891607;22;19919;-86
2022/01/27 23:09:35;;;;;;;;;;;22.90;45.20;;;;;;3892227;22;20373;-86
2022/01/27 23:11:08;;;;;;;;;;;22.90;45.10;;;;;;3892973;22;19925;-86
2022/01/27 23:12:46;;;;;;;;;;;22.90;45.20;;;;;;3892377;22;19923;-86
2022/01/27 23:14:27;;;;;;;;;;;22.90;45.20;;;;;;3890573;22;19919;-86
2022/01/27 23:16:08;;;;;;;;;;;22.90;45.10;;;;;;3891285;22;19923;-86
2022/01/27 23:17:53;;;;;;;;;;;22.90;45.10;;;;;;3892259;22;19923;-85
2022/01/27 23:19:33;;;;;;;;;;;22.90;45.10;;;;;;3891792;22;19925;-86
2022/01/27 23:21:09;;;;;;;;;;;22.90;45.10;;;;;;3892409;22;19955;-86
2022/01/27 23:22:44;;;;;;;;;;;22.90;45.00;;;;;;3891777;22;19919;-86
2022/01/27 23:24:26;;;;;;;;;;;22.90;45.00;;;;;;3891154;22;19920;-85
2022/01/27 23:26:10;;;;;;;;;;;22.90;45.00;;;;;;3891912;22;19919;-85
2022/01/27 23:27:45;;;;;;;;;;;22.90;45.00;;;;;;3891925;22;19919;-86
2022/01/27 23:29:19;;;;;;;;;;;22.90;45.00;;;;;;3892470;22;19963;-85
2022/01/27 23:31:02;;;;;;;;;;;22.90;45.00;;;;;;3891138;22;19982;-85
2022/01/27 23:32:34;;;;;;;;;;;22.90;45.00;;;;;;3890130;22;19923;-85
2022/01/27 23:34:06;;;;;;;;;;;23.00;45.10;;;;;;3891852;22;20253;-85
2022/01/27 23:35:38;;;;;;;;;;;22.90;44.90;;;;;;3891500;22;19923;-86
2022/01/27 23:37:22;;;;;;;;;;;22.90;45.00;;;;;;3892019;22;19923;-86
2022/01/27 23:39:16;;;;;;;;;;;22.90;44.90;;;;;;3892194;22;19934;-87
2022/01/27 23:40:55;;;;;;;;;;;22.90;44.90;;;;;;3892395;22;19920;-85
2022/01/27 23:42:47;;;;;;;;;;;22.90;44.90;;;;;;3890853;22;19967;-86
2022/01/27 23:44:35;;;;;;;;;;;22.90;44.90;;;;;;3890998;22;19919;-86
2022/01/27 23:46:21;;;;;;;;;;;22.90;44.90;;;;;;3891861;22;20330;-86
2022/01/27 23:47:58;;;;;;;;;;;22.90;44.90;;;;;;3891162;22;19919;-86
2022/01/27 23:49:40;;;;;;;;;;;22.90;44.90;;;;;;3892187;22;19957;-85
2022/01/27 23:51:22;;;;;;;;;;;22.90;44.90;;;;;;3891653;22;19923;-85
2022/01/27 23:52:59;;;;;;;;;;;22.90;44.90;;;;;;3891521;22;19965;-85
2022/01/27 23:54:40;;;;;;;;;;;22.90;44.90;;;;;;3892279;22;19927;-85
2022/01/27 23:56:16;;;;;;;;;;;22.90;44.90;;;;;;3892141;22;19986;-85
2022/01/27 23:57:52;;;;;;;;;;;22.90;44.80;;;;;;3891393;22;19920;-86
2022/01/27 23:59:41;;;;;;;;;;;22.90;44.90;;;;;;3891299;22;19926;-86
